Prestonville, Kentucky
Current Conditions -  °F | °C
As of 4:13 AM on Sunday 21 Dec 2014 (Local Time) from KIMS Reporting Station
Broken Clouds Broken Clouds  
Wind Chill: 28°   Ceiling: 1600
Heat Index: 28°   Visibility: 5mi
Dew Point: 25°   Wind: 0mph
Humidity: 86%   Direction: NA
Pressure: 30.3"   Gusts: NA
Location:  38.6522°N, 85.2057°W
Report Text: KIMS 210913Z AUTO 00000KT 5SM BKN016 M02/M04 A3030 RMK AO1
Loading
Personal Weather Stations






























Interactive Weather Map New forecast layout! Learn more

10-Day Weather Forecast

Advertisements
Track Severe Weather on mobile